Pagrindinis puslapis
METAR-TAF:

METAR-TAF

Oro uostai :

Aurangabadas, Indija

platuma: 19-51-46N, ilguma: 75-23-53E, Aukštis: 582 m

Dabartinis oras

Ataskaita buvo paskelbta 36 minutes, ne 12:00 UTC
Vėjas 3 kt iš Rytų/Pietryčių
Temperatūra 26°C
Drėgmė 58%
Slėgis 1014 hPa
Matomumas: 4000 m
Išsisklaidę debesys ne aukštis 2000 ft
Išsisklaidę debesys ne aukštis 2500 ft
migla

METAR: VAAU 151200Z 11003KT 4000 HZ SCT020 SCT025 26/17 Q1014 NOSIG

Laikas: 18:06 (12:36 UTC)

Prognozė

Prognozė galioja nuo 15 metu 12 UTC su 15 metu 21 UTC
Vėjas 3 kt nuo kintamojo kryptimis
Matomumas: 4000 m
Išsisklaidę debesys ne aukštis 2000 ft
migla
Tapsmas
nuo 15 metu 16 UTC su 15 metu 18 UTC
Matomumas: 3000 m
migla

TAF: VAAU 1512/1521 VRB03KT 4000 HZ SCT020 BECMG 1516/1518 3000 HZ

Orai ataskaitas ir orų prognozės (METAR, TAF).

turimą stotys yra geltonos ir raudonos taškus žemėlapyje.

Perkelti pele per norėdami pamatyti stoties vardą.

Tada spustelėkite, norėdami matyti oro stebėjimo ir prognozės.

Norėdami pakeisti žemėlapį: spustelėkite ant žalios mygtukų su juodo kryžiaus žemyn,; žalią mygtuką su brūkšneliu, jei norite nutolinti; arba žalių rodyklių gretimoms žemėlapius.


METAR-TAF: